Toimi, Minnesota
Current Conditions -  °F | °C
As of 3:34 PM on Sunday 23 Nov 2014 (Local Time) from KTWM Reporting Station
Light Rain Light Rain  
Wind Chill: 41°   Ceiling: 100
Heat Index: 41°   Visibility: 0mi
Dew Point: 36°   Wind: 3mph
Humidity: 81%   Direction: 220°SW
Pressure: 29.35"   Gusts: NA
Location:  47.3998°N, 91.9141°W
Report Text: KTWM 232134Z AUTO 22003KT M1/4SM -RA OVC001 05/02 A2935 RMK AO2
Loading
Personal Weather Stations






























Interactive Weather Map New forecast layout! Learn more

10-Day Weather Forecast

Advertisements
Track Severe Weather on mobile